createdAt,value
2022-10-18T00:02:21.097Z,5.13
2022-10-18T00:04:51.508Z,11.15
2022-10-18T00:07:22.051Z,7.85
2022-10-18T00:09:52.438Z,7.30
2022-10-18T00:12:23.261Z,4.68
2022-10-18T00:14:53.796Z,9.70
2022-10-18T00:17:24.508Z,7.72
2022-10-18T00:22:26.570Z,8.50
2022-10-18T00:24:56.882Z,12.27
2022-10-18T00:27:27.521Z,13.73
2022-10-18T00:32:28.346Z,11.85
2022-10-18T00:34:58.605Z,12.20
2022-10-18T00:37:29.680Z,12.75
2022-10-18T00:39:59.735Z,11.95
2022-10-18T00:42:37.394Z,9.48
2022-10-18T00:45:25.371Z,14.30
2022-10-18T00:48:04.406Z,12.73
2022-10-18T00:50:36.540Z,10.10
2022-10-18T00:53:14.007Z,11.13
2022-10-18T00:55:47.095Z,13.45
2022-10-18T00:58:20.957Z,8.70
2022-10-18T01:00:51.017Z,7.93
2022-10-18T01:03:21.311Z,9.40
2022-10-18T01:05:51.844Z,13.10
2022-10-18T01:08:31.429Z,9.45
2022-10-18T01:11:10.555Z,8.00
2022-10-18T01:13:44.018Z,9.07
2022-10-18T01:16:19.773Z,15.52
2022-10-18T01:18:59.535Z,9.48
2022-10-18T01:21:48.277Z,11.25
2022-10-18T01:24:55.916Z,15.73
2022-10-18T01:27:47.679Z,10.82
2022-10-18T01:30:17.854Z,10.73
2022-10-18T01:32:54.391Z,8.52
2022-10-18T01:35:32.605Z,12.77
2022-10-18T01:38:07.852Z,15.63
2022-10-18T01:40:39.863Z,9.27
2022-10-18T01:43:12.010Z,11.90
2022-10-18T01:45:43.289Z,8.05
2022-10-18T01:48:14.586Z,14.13
2022-10-18T01:50:44.646Z,12.35
2022-10-18T01:53:33.081Z,11.95
2022-10-18T01:56:17.530Z,12.60
2022-10-18T01:59:03.707Z,9.40
2022-10-18T02:01:57.987Z,13.50
2022-10-18T02:05:08.524Z,13.30
2022-10-18T02:08:12.164Z,11.77
2022-10-18T02:11:02.403Z,12.00
2022-10-18T02:13:38.836Z,7.07
2022-10-18T02:16:17.890Z,9.50
2022-10-18T02:18:59.404Z,12.30
2022-10-18T02:21:31.110Z,11.85
2022-10-18T02:24:03.885Z,7.10
2022-10-18T02:26:34.279Z,8.85
2022-10-18T02:30:00.191Z,12.70
2022-10-18T02:33:19.534Z,9.70
2022-10-18T02:35:57.909Z,9.57
2022-10-18T02:38:29.027Z,6.40
2022-10-18T02:41:00.030Z,12.50
2022-10-18T02:43:30.071Z,5.53
2022-10-18T02:46:00.669Z,5.80
2022-10-18T02:51:00.626Z,7.00
2022-10-18T02:53:33.291Z,8.05
2022-10-18T02:56:04.419Z,8.18
2022-10-18T02:58:34.553Z,5.82
2022-10-18T03:01:05.059Z,6.70
2022-10-18T03:06:04.388Z,6.53
2022-10-18T03:08:34.870Z,7.63
2022-10-18T03:11:04.735Z,9.30
2022-10-18T03:13:35.592Z,9.63
2022-10-18T03:16:05.768Z,9.52
2022-10-18T03:18:36.321Z,8.68
2022-10-18T03:21:10.142Z,7.22
2022-10-18T03:23:43.027Z,10.13
2022-10-18T03:26:13.049Z,12.50
2022-10-18T03:28:43.868Z,6.75
2022-10-18T03:31:14.013Z,5.10
2022-10-18T03:33:44.626Z,7.65
2022-10-18T03:38:45.032Z,7.68
2022-10-18T03:43:44.248Z,7.70
2022-10-18T03:46:15.128Z,5.70
2022-10-18T03:48:45.164Z,8.70
2022-10-18T03:51:18.779Z,5.30
2022-10-18T03:53:48.785Z,6.38
2022-10-18T03:56:19.409Z,5.80
2022-10-18T04:01:18.702Z,8.55
2022-10-18T04:03:49.342Z,7.72
2022-10-18T04:08:48.516Z,5.22
2022-10-18T04:11:19.104Z,9.88
2022-10-18T04:16:18.778Z,7.10
2022-10-18T04:18:49.357Z,8.02
2022-10-18T04:23:50.631Z,8.52
2022-10-18T04:26:20.947Z,5.32
2022-10-18T04:28:51.443Z,8.70
2022-10-18T04:31:22.136Z,9.85
2022-10-18T04:33:53.291Z,8.90
2022-10-18T04:36:23.555Z,7.13
2022-10-18T04:38:54.002Z,6.25
2022-10-18T04:41:24.044Z,7.15
2022-10-18T04:43:54.691Z,7.15
2022-10-18T04:46:24.853Z,5.25
2022-10-18T04:48:55.258Z,5.55
2022-10-18T04:51:25.523Z,5.90
2022-10-18T04:53:56.138Z,10.02
2022-10-18T04:58:55.558Z,6.63
2022-10-18T05:01:26.231Z,6.82
2022-10-18T05:03:57.271Z,7.38
2022-10-18T05:06:27.889Z,5.80
2022-10-18T05:08:57.885Z,4.68
2022-10-18T05:11:27.818Z,5.78
2022-10-18T05:13:58.267Z,6.13
2022-10-18T05:16:29.976Z,5.72
2022-10-18T05:19:00.540Z,6.88
2022-10-18T05:24:05.581Z,5.13
2022-10-18T05:26:36.303Z,6.70
2022-10-18T05:29:06.405Z,9.60
2022-10-18T05:31:37.077Z,5.82
2022-10-18T05:34:07.044Z,5.25
2022-10-18T05:36:37.597Z,6.25
2022-10-18T05:41:40.862Z,6.25
2022-10-18T05:46:40.759Z,9.13
2022-10-18T05:49:14.675Z,9.15
2022-10-18T05:51:44.910Z,4.13
2022-10-18T05:54:16.130Z,5.72
2022-10-18T05:56:46.332Z,5.95
2022-10-18T05:59:16.824Z,4.90
2022-10-18T06:04:18.999Z,7.68
2022-10-18T06:06:50.184Z,6.10
2022-10-18T06:09:20.505Z,8.27
2022-10-18T06:11:50.613Z,9.20
2022-10-18T06:14:20.965Z,10.70
2022-10-18T06:16:52.047Z,6.00
2022-10-18T06:19:22.503Z,8.23
2022-10-18T06:21:52.742Z,8.18
2022-10-18T06:24:24.190Z,7.03
2022-10-18T06:26:54.388Z,6.97
2022-10-18T06:29:24.808Z,9.13
2022-10-18T06:31:54.890Z,6.35
2022-10-18T06:34:25.483Z,5.05
2022-10-18T06:36:56.495Z,7.57
2022-10-18T06:39:31.790Z,9.80
2022-10-18T06:42:01.870Z,6.35
2022-10-18T06:44:36.612Z,3.10
2022-10-18T06:47:08.348Z,5.75
2022-10-18T06:49:38.663Z,7.22
2022-10-18T06:52:08.802Z,5.75
2022-10-18T06:54:39.085Z,7.50
2022-10-18T06:57:09.159Z,9.80
2022-10-18T06:59:39.701Z,9.75
2022-10-18T07:02:10.894Z,5.35
2022-10-18T07:04:41.209Z,8.38
2022-10-18T07:07:11.464Z,7.80
2022-10-18T07:09:42.133Z,6.60
2022-10-18T07:12:13.500Z,5.93
2022-10-18T07:14:43.814Z,4.95
2022-10-18T07:17:13.876Z,8.32
2022-10-18T07:19:44.498Z,6.80
2022-10-18T07:22:14.597Z,7.60
2022-10-18T07:24:45.237Z,7.65
2022-10-18T07:27:15.323Z,7.43
2022-10-18T07:29:45.966Z,6.63
2022-10-18T07:32:16.903Z,5.88
2022-10-18T07:34:50.762Z,5.65
2022-10-18T07:37:20.966Z,7.03
2022-10-18T07:39:51.612Z,6.43
2022-10-18T07:42:21.844Z,7.60
2022-10-18T07:44:52.530Z,7.55
2022-10-18T07:47:22.603Z,5.00
2022-10-18T07:49:53.177Z,6.90
2022-10-18T07:52:23.251Z,7.30
2022-10-18T07:54:53.825Z,6.45
2022-10-18T07:57:24.692Z,5.78
2022-10-18T07:59:58.081Z,5.00
2022-10-18T08:02:28.324Z,5.88
2022-10-18T08:04:58.627Z,8.38
2022-10-18T08:07:28.868Z,6.72
2022-10-18T08:09:59.294Z,9.20
2022-10-18T08:12:29.490Z,3.72
2022-10-18T08:14:59.835Z,3.58
2022-10-18T08:17:30.228Z,5.22
2022-10-18T08:20:12.044Z,5.60
2022-10-18T08:22:55.443Z,8.20
2022-10-18T08:25:28.242Z,4.15
2022-10-18T08:27:59.271Z,5.85
2022-10-18T08:30:29.715Z,5.10
2022-10-18T08:33:03.596Z,5.65
2022-10-18T08:35:33.678Z,5.72
2022-10-18T08:38:04.454Z,5.57
2022-10-18T08:40:35.988Z,4.88
2022-10-18T08:43:27.731Z,5.38
2022-10-18T08:45:58.199Z,5.38
2022-10-18T08:48:31.919Z,6.97
2022-10-18T08:51:02.778Z,6.82
2022-10-18T08:53:50.475Z,5.43
2022-10-18T08:56:25.283Z,6.65
2022-10-18T08:58:56.078Z,3.03
2022-10-18T09:01:37.689Z,6.22
2022-10-18T09:04:17.084Z,7.28
2022-10-18T09:07:07.146Z,4.30
2022-10-18T09:10:08.301Z,4.88
2022-10-18T09:12:56.184Z,6.20
2022-10-18T09:15:44.988Z,3.95
2022-10-18T09:18:59.193Z,8.15
2022-10-18T09:21:39.349Z,8.80
2022-10-18T09:24:21.671Z,6.45
2022-10-18T09:26:59.485Z,9.20
2022-10-18T09:30:04.347Z,9.05
2022-10-18T09:32:57.820Z,8.13
2022-10-18T09:35:35.262Z,9.85
2022-10-18T09:38:10.985Z,8.40
2022-10-18T09:40:53.815Z,7.53
2022-10-18T09:43:47.884Z,8.20
2022-10-18T09:46:23.516Z,7.68
2022-10-18T09:49:31.028Z,7.88
2022-10-18T09:52:06.389Z,5.72
2022-10-18T09:54:45.363Z,9.57
2022-10-18T09:57:28.516Z,7.68
2022-10-18T10:00:01.941Z,9.93
2022-10-18T10:02:34.563Z,2.70
2022-10-18T10:05:05.496Z,6.40
2022-10-18T10:07:42.641Z,7.47
2022-10-18T10:10:22.605Z,5.00
2022-10-18T10:13:09.470Z,8.43
2022-10-18T10:15:42.425Z,10.57
2022-10-18T10:18:22.968Z,6.53
2022-10-18T10:21:03.199Z,11.35
2022-10-18T10:23:40.841Z,7.75
2022-10-18T10:26:30.030Z,7.07
2022-10-18T10:29:00.486Z,8.45
2022-10-18T10:31:33.191Z,7.57
2022-10-18T10:34:15.651Z,6.10
2022-10-18T10:36:55.950Z,5.45
2022-10-18T10:39:27.417Z,5.50
2022-10-18T10:42:01.862Z,13.02
2022-10-18T10:44:35.533Z,8.43
2022-10-18T10:47:06.750Z,9.88
2022-10-18T10:49:48.418Z,7.93
2022-10-18T10:52:28.120Z,8.40
2022-10-18T10:55:23.595Z,8.45
2022-10-18T10:57:53.086Z,8.13
2022-10-18T11:00:38.657Z,10.23
2022-10-18T11:03:34.537Z,3.63
2022-10-18T11:06:04.672Z,6.18
2022-10-18T11:08:43.249Z,8.32
2022-10-18T11:11:29.009Z,9.18
2022-10-18T11:14:24.272Z,9.32
2022-10-18T11:17:09.962Z,8.15
2022-10-18T11:20:02.613Z,5.57
2022-10-18T11:22:39.584Z,6.72
2022-10-18T11:25:17.583Z,8.43
2022-10-18T11:28:02.177Z,4.78
2022-10-18T11:30:39.156Z,4.30
2022-10-18T11:33:56.261Z,6.70
2022-10-18T11:36:54.586Z,5.95
2022-10-18T11:40:02.546Z,7.32
2022-10-18T11:42:54.016Z,6.25
2022-10-18T11:45:38.644Z,2.30
2022-10-18T11:48:27.821Z,8.85
2022-10-18T11:51:00.550Z,7.88
2022-10-18T11:53:37.325Z,8.80
2022-10-18T11:56:12.668Z,5.90
2022-10-18T11:59:12.351Z,5.22
2022-10-18T12:02:23.822Z,7.47
2022-10-18T12:08:06.819Z,5.82
2022-10-18T12:11:03.452Z,5.30
2022-10-18T12:14:04.899Z,5.78
2022-10-18T12:16:51.331Z,5.75
2022-10-18T12:19:28.219Z,7.40
2022-10-18T12:22:07.686Z,7.53
2022-10-18T12:24:38.805Z,8.18
2022-10-18T12:27:16.466Z,8.40
2022-10-18T12:29:50.384Z,6.72
2022-10-18T12:32:28.220Z,8.23
2022-10-18T12:35:16.475Z,4.88
2022-10-18T12:38:13.562Z,11.68
2022-10-18T12:40:47.801Z,7.03
2022-10-18T12:43:24.852Z,3.92
2022-10-18T12:46:00.537Z,7.43
2022-10-18T12:48:46.690Z,2.95
2022-10-18T12:51:22.961Z,10.80
2022-10-18T12:56:32.042Z,5.72
2022-10-18T12:59:18.277Z,7.40
2022-10-18T13:01:54.405Z,5.88
2022-10-18T13:07:06.549Z,3.83
2022-10-18T13:09:41.910Z,5.22
2022-10-18T13:12:11.891Z,4.15
2022-10-18T13:15:24.175Z,5.32
2022-10-18T13:18:41.867Z,3.22
2022-10-18T13:21:20.706Z,3.45
2022-10-18T13:24:03.223Z,4.88
2022-10-18T13:27:05.118Z,6.57
2022-10-18T13:30:25.134Z,5.65
2022-10-18T13:33:01.816Z,3.30
2022-10-18T13:35:58.679Z,9.10
2022-10-18T13:38:40.067Z,6.70
2022-10-18T13:44:12.852Z,8.05
2022-10-18T13:46:47.212Z,5.13
2022-10-18T13:49:38.351Z,4.30
2022-10-18T13:52:33.117Z,7.25
2022-10-18T13:55:16.654Z,6.93
2022-10-18T13:58:12.387Z,7.50
2022-10-18T14:00:54.793Z,5.43
2022-10-18T14:04:02.477Z,7.88
2022-10-18T14:06:40.217Z,4.28
2022-10-18T14:12:34.008Z,3.33
2022-10-18T14:15:48.257Z,5.38
2022-10-18T14:18:39.556Z,4.97
2022-10-18T14:21:21.616Z,5.07
2022-10-18T14:23:53.614Z,6.45
2022-10-18T14:26:25.185Z,4.10
2022-10-18T14:29:08.021Z,4.25
2022-10-18T14:31:39.598Z,6.75
2022-10-18T14:34:16.956Z,5.35
2022-10-18T14:36:51.335Z,3.90
2022-10-18T14:39:31.782Z,3.90
2022-10-18T14:42:03.410Z,5.70
2022-10-18T14:44:36.021Z,5.22
2022-10-18T14:47:18.009Z,3.92
2022-10-18T14:49:49.233Z,3.60
2022-10-18T14:52:32.926Z,6.13
2022-10-18T14:55:06.005Z,5.50
2022-10-18T14:57:39.101Z,2.42
2022-10-18T15:02:58.808Z,9.40
2022-10-18T15:05:29.408Z,7.47
2022-10-18T15:08:01.219Z,5.38
2022-10-18T15:10:35.343Z,3.15
2022-10-18T15:13:11.106Z,4.90
2022-10-18T15:15:42.562Z,7.40
2022-10-18T15:18:23.981Z,4.00
2022-10-18T15:21:23.449Z,3.70
2022-10-18T15:23:56.075Z,4.22
2022-10-18T15:26:32.178Z,2.85
2022-10-18T15:29:04.600Z,2.70
2022-10-18T15:31:41.066Z,4.47
2022-10-18T15:34:22.915Z,5.43
2022-10-18T15:36:55.598Z,3.50
2022-10-18T15:39:28.935Z,2.63
2022-10-18T15:41:59.266Z,3.20
2022-10-18T15:44:52.395Z,6.43
2022-10-18T15:47:25.484Z,3.42
2022-10-18T15:49:59.533Z,2.60
2022-10-18T15:52:42.295Z,3.22
2022-10-18T15:55:35.092Z,3.85
2022-10-18T15:58:33.369Z,2.85
2022-10-18T16:01:05.568Z,3.25
2022-10-18T16:03:38.107Z,2.28
2022-10-18T16:06:12.313Z,3.88
2022-10-18T16:08:53.197Z,1.63
2022-10-18T16:11:26.467Z,5.20
2022-10-18T16:13:59.530Z,2.90
2022-10-18T16:16:31.383Z,2.22
2022-10-18T16:19:01.598Z,3.80
2022-10-18T16:21:41.016Z,4.40
2022-10-18T16:24:11.087Z,4.05
2022-10-18T16:26:41.659Z,6.95
2022-10-18T16:29:22.707Z,2.65
2022-10-18T16:31:56.528Z,3.55
2022-10-18T16:34:28.290Z,1.75
2022-10-18T16:36:58.911Z,3.60
2022-10-18T16:39:30.362Z,5.22
2022-10-18T16:42:00.820Z,2.92
2022-10-18T16:47:00.018Z,3.90
2022-10-18T16:49:30.507Z,6.07
2022-10-18T16:52:01.190Z,3.15
2022-10-18T16:54:35.107Z,3.92
2022-10-18T16:57:05.782Z,5.22
2022-10-18T16:59:36.744Z,5.32
2022-10-18T17:02:10.205Z,5.00
2022-10-18T17:04:40.976Z,3.72
2022-10-18T17:07:23.433Z,2.08
2022-10-18T17:09:54.064Z,3.78
2022-10-18T17:12:24.317Z,4.63
2022-10-18T17:14:54.910Z,4.57
2022-10-18T17:17:25.483Z,2.65
2022-10-18T17:19:56.947Z,4.72
2022-10-18T17:22:27.170Z,2.80
2022-10-18T17:24:58.689Z,3.20
2022-10-18T17:27:29.210Z,2.92
2022-10-18T17:29:59.830Z,3.60
2022-10-18T17:32:30.977Z,2.03
2022-10-18T17:35:01.733Z,3.97
2022-10-18T17:37:32.480Z,1.40
2022-10-18T17:40:06.377Z,1.92
2022-10-18T17:42:36.666Z,3.20
2022-10-18T17:45:07.951Z,2.45
2022-10-18T17:47:39.160Z,2.65
2022-10-18T17:50:10.109Z,3.50
2022-10-18T17:52:44.874Z,2.55
2022-10-18T17:55:16.764Z,3.55
2022-10-18T17:57:47.168Z,2.10
2022-10-18T18:00:19.112Z,3.45
2022-10-18T18:02:49.405Z,2.83
2022-10-18T18:05:20.183Z,2.67
2022-10-18T18:07:50.621Z,1.55
2022-10-18T18:10:21.222Z,3.28
2022-10-18T18:12:51.403Z,2.47
2022-10-18T18:15:22.014Z,2.25
2022-10-18T18:17:57.201Z,3.80
2022-10-18T18:20:28.489Z,3.22
2022-10-18T18:22:58.674Z,2.85
2022-10-18T18:25:29.275Z,3.35
2022-10-18T18:28:05.251Z,3.28
2022-10-18T18:30:41.387Z,1.88
2022-10-18T18:33:11.564Z,3.22
2022-10-18T18:35:42.271Z,3.80
2022-10-18T18:38:12.636Z,5.75
2022-10-18T18:40:43.602Z,2.55
2022-10-18T18:43:28.412Z,2.40
2022-10-18T18:46:23.198Z,4.95
2022-10-18T18:48:53.358Z,3.22
2022-10-18T18:51:25.846Z,3.38
2022-10-18T18:53:56.171Z,4.18
2022-10-18T18:56:29.969Z,1.80
2022-10-18T18:59:00.601Z,5.90
2022-10-18T19:01:34.915Z,2.42
2022-10-18T19:04:06.330Z,3.38
2022-10-18T19:06:42.083Z,2.35
2022-10-18T19:09:20.702Z,4.80
2022-10-18T19:11:57.064Z,3.28
2022-10-18T19:14:27.211Z,5.07
2022-10-18T19:17:02.777Z,4.97
2022-10-18T19:19:33.367Z,5.53
2022-10-18T19:22:10.711Z,4.88
2022-10-18T19:24:40.751Z,4.05
2022-10-18T19:27:16.087Z,3.72
2022-10-18T19:29:47.177Z,5.00
2022-10-18T19:32:19.730Z,3.75
2022-10-18T19:34:49.807Z,4.70
2022-10-18T19:37:21.152Z,3.20
2022-10-18T19:39:51.146Z,4.97
2022-10-18T19:42:26.071Z,4.40
2022-10-18T19:44:57.790Z,4.13
2022-10-18T19:47:28.674Z,6.53
2022-10-18T19:50:00.851Z,2.78
2022-10-18T19:52:32.227Z,3.53
2022-10-18T19:55:02.835Z,3.97
2022-10-18T19:57:33.639Z,4.45
2022-10-18T20:00:05.486Z,4.18
2022-10-18T20:02:41.274Z,3.42
2022-10-18T20:05:11.782Z,4.38
2022-10-18T20:07:43.721Z,5.97
2022-10-18T20:10:13.722Z,4.13
2022-10-18T20:12:44.367Z,2.22
2022-10-18T20:15:14.389Z,4.40
2022-10-18T20:17:45.008Z,7.15
2022-10-18T20:20:15.110Z,4.57
2022-10-18T20:22:45.740Z,4.40
2022-10-18T20:25:15.761Z,4.03
2022-10-18T20:27:48.767Z,3.88
2022-10-18T20:30:18.899Z,7.13
2022-10-18T20:32:49.885Z,6.25
2022-10-18T20:35:20.347Z,3.55
2022-10-18T20:37:50.918Z,4.13
2022-10-18T20:40:20.765Z,4.53
2022-10-18T20:42:53.809Z,6.75
2022-10-18T20:45:24.785Z,6.05
2022-10-18T20:47:59.396Z,7.57
2022-10-18T20:50:29.464Z,3.80
2022-10-18T20:52:59.958Z,5.95
2022-10-18T20:55:31.623Z,5.32
2022-10-18T20:58:03.553Z,2.72
2022-10-18T21:03:06.671Z,3.20
2022-10-18T21:05:36.785Z,4.78
2022-10-18T21:08:07.308Z,3.53
2022-10-18T21:13:06.693Z,2.28
2022-10-18T21:15:37.163Z,2.47
2022-10-18T21:18:07.762Z,3.08
2022-10-18T21:20:38.838Z,2.42
2022-10-18T21:23:08.880Z,5.28
2022-10-18T21:25:39.229Z,2.08
2022-10-18T21:28:09.648Z,2.58
2022-10-18T21:30:39.895Z,5.20
2022-10-18T21:33:10.430Z,3.63
2022-10-18T21:38:11.099Z,4.25
2022-10-18T21:40:45.716Z,4.03
2022-10-18T21:43:19.229Z,3.20
2022-10-18T21:45:49.566Z,5.20
2022-10-18T21:48:20.155Z,2.53
2022-10-18T21:50:50.378Z,5.45
2022-10-18T21:53:20.906Z,5.25
2022-10-18T21:55:51.313Z,1.48
2022-10-18T21:58:22.068Z,4.03
2022-10-18T22:00:52.423Z,8.27
2022-10-18T22:03:24.490Z,3.95
2022-10-18T22:06:03.618Z,2.25
2022-10-18T22:08:34.080Z,9.50
2022-10-18T22:11:05.766Z,4.82
2022-10-18T22:13:37.233Z,5.88
2022-10-18T22:16:08.624Z,4.00
2022-10-18T22:18:39.334Z,3.92
2022-10-18T22:21:11.229Z,1.15
2022-10-18T22:23:44.674Z,1.92
2022-10-18T22:26:24.158Z,6.72
2022-10-18T22:29:02.766Z,4.25
2022-10-18T22:31:38.580Z,5.90
2022-10-18T22:34:13.575Z,2.78
2022-10-18T22:36:46.971Z,3.20
2022-10-18T22:39:18.107Z,3.38
2022-10-18T22:41:48.745Z,3.00
2022-10-18T22:44:19.156Z,3.65
2022-10-18T22:49:22.821Z,6.60
2022-10-18T22:51:52.871Z,4.63
2022-10-18T22:54:22.737Z,4.47
2022-10-18T22:56:53.172Z,1.88
2022-10-18T22:59:23.204Z,3.40
2022-10-18T23:01:53.664Z,4.25
2022-10-18T23:04:23.660Z,4.63
2022-10-18T23:06:54.184Z,3.40
2022-10-18T23:11:56.792Z,3.53
2022-10-18T23:14:30.173Z,4.20
2022-10-18T23:17:01.050Z,5.07
2022-10-18T23:19:31.144Z,7.28
2022-10-18T23:22:06.984Z,1.58
2022-10-18T23:24:37.151Z,5.70
2022-10-18T23:27:07.678Z,4.75
2022-10-18T23:32:07.779Z,4.78
2022-10-18T23:34:38.258Z,5.30
2022-10-18T23:37:08.259Z,1.58
2022-10-18T23:39:38.631Z,4.25
2022-10-18T23:42:08.618Z,3.10
2022-10-18T23:44:39.059Z,2.75
2022-10-18T23:47:09.545Z,4.10
2022-10-18T23:49:40.001Z,1.15
2022-10-18T23:52:10.486Z,3.17
2022-10-18T23:54:41.118Z,2.50
2022-10-18T23:57:11.296Z,2.80
2022-10-18T23:59:41.641Z,5.45
